Time;durP1;ratioP1;P1;durP2;ratioP2;P2;SDS_P1;SDS_P2;PMS_P1;PMS_P2;Temp;Humidity;BMP_temperature;BMP_pressure;BME280_temperature;BME280_humidity;BME280_pressure;Samples;Min_cycle;Max_cycle;Signal;HPM_P1;HPM_P2
2021/10/08 00:02:13;;;;;;;;;17.00;14.75;;;;;11.93;72.42;102659.53;5040241;28;45467;-83
2021/10/08 00:04:39;;;;;;;;;13.25;13.00;;;;;11.88;72.24;102656.06;5038896;28;45739;-83
2021/10/08 00:07:05;;;;;;;;;13.00;12.00;;;;;11.87;72.53;102654.34;5039889;28;45627;-83
2021/10/08 00:09:30;;;;;;;;;16.50;14.50;;;;;11.83;72.57;102660.50;5022297;28;45252;-84
2021/10/08 00:11:57;;;;;;;;;22.25;14.75;;;;;11.83;72.71;102657.84;5021462;28;47052;-84
2021/10/08 00:14:26;;;;;;;;;15.00;13.75;;;;;11.80;72.60;102660.53;5039830;28;46333;-87
2021/10/08 00:16:53;;;;;;;;;13.50;11.50;;;;;11.77;72.59;102652.66;5036167;28;45523;-86
2021/10/08 00:19:19;;;;;;;;;14.75;13.50;;;;;11.76;72.66;102656.16;5039320;28;45300;-86
2021/10/08 00:21:44;;;;;;;;;17.50;13.00;;;;;11.71;72.85;102650.91;5036198;28;45482;-86
2021/10/08 00:24:10;;;;;;;;;20.50;15.00;;;;;11.73;72.70;102659.69;5039689;28;45518;-86
2021/10/08 00:26:38;;;;;;;;;17.75;15.00;;;;;11.67;72.75;102655.34;5040076;28;45198;-84
2021/10/08 00:29:04;;;;;;;;;18.25;16.25;;;;;11.71;72.70;102666.72;5039861;28;45471;-84
2021/10/08 00:31:29;;;;;;;;;12.25;12.00;;;;;11.70;72.76;102659.72;5038306;28;45401;-84
2021/10/08 00:33:54;;;;;;;;;20.00;17.75;;;;;11.65;72.80;102662.41;5040019;28;46403;-88
2021/10/08 00:36:20;;;;;;;;;15.00;14.75;;;;;11.62;73.11;102658.88;5021413;28;45457;-83
2021/10/08 00:38:45;;;;;;;;;17.00;15.25;;;;;11.61;72.91;102663.28;5040065;28;45339;-92
2021/10/08 00:41:11;;;;;;;;;15.75;14.75;;;;;11.58;72.97;102660.69;5039337;28;45451;-91
2021/10/08 00:43:37;;;;;;;;;18.25;14.25;;;;;11.61;73.03;102667.66;5040032;28;45374;-93
2021/10/08 00:46:02;;;;;;;;;14.00;13.00;;;;;11.57;73.04;102670.34;5022494;28;45658;-93
2021/10/08 00:48:28;;;;;;;;;17.50;15.75;;;;;11.59;73.31;102670.31;5040450;28;45331;-94
2021/10/08 00:50:53;;;;;;;;;16.50;16.25;;;;;11.54;73.18;102662.44;5021558;28;45948;-92
2021/10/08 00:53:19;;;;;;;;;20.75;18.00;;;;;11.57;73.05;102667.69;5022307;28;47194;-94
2021/10/08 00:55:48;;;;;;;;;19.75;15.00;;;;;11.55;73.19;102661.56;5040207;28;45358;-93
2021/10/08 00:58:15;;;;;;;;;19.00;17.00;;;;;11.53;73.02;102665.94;5026977;28;45230;-92
2021/10/08 01:00:42;;;;;;;;;21.25;15.25;;;;;11.53;73.23;102671.22;5021791;28;47147;-92
2021/10/08 01:03:07;;;;;;;;;16.00;14.75;;;;;11.52;73.23;102671.25;5039778;28;45369;-81
2021/10/08 01:05:33;;;;;;;;;16.50;15.25;;;;;11.44;73.07;102664.25;5038577;28;45402;-80
2021/10/08 01:07:58;;;;;;;;;14.50;13.00;;;;;11.42;73.19;102660.75;5039735;28;45260;-80
2021/10/08 01:10:24;;;;;;;;;16.75;16.00;;;;;11.41;73.35;102664.25;5037994;28;45550;-80
2021/10/08 01:12:49;;;;;;;;;16.00;14.50;;;;;11.36;73.15;102660.78;5039406;28;45519;-80
2021/10/08 01:15:14;;;;;;;;;16.50;14.50;;;;;11.41;73.36;102669.53;5039225;28;45461;-80
2021/10/08 01:17:40;;;;;;;;;12.50;12.25;;;;;11.35;73.49;102659.06;5039695;28;45471;-80
2021/10/08 01:20:10;;;;;;;;;14.75;14.00;;;;;11.40;73.18;102661.66;5038366;28;45166;-80
2021/10/08 01:22:36;;;;;;;;;18.50;12.75;;;;;11.36;73.38;102663.41;5038631;28;45401;-80
2021/10/08 01:25:03;;;;;;;;;12.50;11.25;;;;;11.37;73.34;102665.19;5038563;28;46861;-80
2021/10/08 01:27:28;;;;;;;;;14.75;12.50;;;;;11.34;73.46;102662.56;5038370;28;45245;-80
2021/10/08 01:29:56;;;;;;;;;14.50;11.50;;;;;11.30;73.38;102656.44;5034715;28;45174;-79
2021/10/08 01:32:23;;;;;;;;;13.50;11.00;;;;;11.33;73.55;102666.09;5031817;28;46298;-79
2021/10/08 01:34:49;;;;;;;;;15.00;12.00;;;;;11.27;73.50;102659.09;5039226;28;45802;-79
2021/10/08 01:37:16;;;;;;;;;17.00;14.25;;;;;11.28;73.53;102662.59;5041104;28;45425;-79
2021/10/08 01:39:43;;;;;;;;;11.00;11.00;;;;;11.32;73.66;102669.59;5042557;28;45641;-79
2021/10/08 01:42:08;;;;;;;;;13.00;11.00;;;;;11.25;73.92;102660.84;5042554;28;46335;-79
2021/10/08 01:44:34;;;;;;;;;9.25;9.25;;;;;11.25;73.61;102667.00;5042452;28;45230;-79
2021/10/08 01:47:00;;;;;;;;;11.50;10.75;;;;;11.23;73.77;102662.63;5024834;28;45307;-80
2021/10/08 01:49:25;;;;;;;;;11.75;10.50;;;;;11.25;73.83;102663.47;5040168;28;45501;-79
2021/10/08 01:51:50;;;;;;;;;11.75;11.00;;;;;11.22;73.68;102658.22;5039574;28;45366;-79
2021/10/08 01:54:16;;;;;;;;;15.00;11.50;;;;;11.28;73.58;102670.50;5042445;28;45309;-79
2021/10/08 01:56:44;;;;;;;;;13.00;11.75;;;;;11.26;73.81;102665.22;5042173;28;45397;-78
2021/10/08 01:59:11;;;;;;;;;16.25;14.00;;;;;11.24;73.91;102659.09;5041466;28;45319;-79
2021/10/08 02:01:36;;;;;;;;;14.00;11.75;;;;;11.25;73.91;102664.38;5035502;28;45681;-78
2021/10/08 02:04:02;;;;;;;;;15.25;13.50;;;;;11.22;73.96;102659.09;5041637;28;45430;-78
2021/10/08 02:06:27;;;;;;;;;14.00;13.00;;;;;11.21;74.11;102659.97;5041968;28;45425;-78
2021/10/08 02:08:53;;;;;;;;;14.50;13.75;;;;;11.20;74.06;102657.38;5042145;28;45451;-78
2021/10/08 02:11:18;;;;;;;;;14.00;13.75;;;;;11.19;74.08;102663.50;5041287;28;46513;-79
2021/10/08 02:13:43;;;;;;;;;12.00;9.75;;;;;11.19;73.99;102661.75;5041140;28;45247;-81
2021/10/08 02:16:09;;;;;;;;;12.25;11.75;;;;;11.19;73.95;102658.22;5042004;28;45596;-81
2021/10/08 02:18:34;;;;;;;;;11.75;10.25;;;;;11.17;73.94;102652.09;5042268;28;45285;-85
2021/10/08 02:21:00;;;;;;;;;16.25;13.00;;;;;11.14;73.90;102658.25;5040708;28;45264;-85
2021/10/08 02:23:25;;;;;;;;;15.00;12.00;;;;;11.14;74.09;102653.00;5041335;28;45245;-83
2021/10/08 02:25:51;;;;;;;;;13.25;10.50;;;;;11.12;74.02;102653.00;5041884;28;45270;-83
2021/10/08 02:28:16;;;;;;;;;13.00;11.50;;;;;11.16;73.95;102659.13;5039645;28;45372;-83
2021/10/08 02:30:41;;;;;;;;;9.75;9.00;;;;;11.12;74.15;102654.75;5041189;28;45475;-83
2021/10/08 02:33:07;;;;;;;;;12.75;11.00;;;;;11.10;74.27;102646.88;5041887;28;45318;-82
2021/10/08 02:35:32;;;;;;;;;10.00;10.00;;;;;11.13;74.05;102653.91;5041345;28;45185;-82
2021/10/08 02:37:58;;;;;;;;;13.00;13.00;;;;;11.07;74.12;102649.53;5040814;28;45412;-82
2021/10/08 02:40:23;;;;;;;;;13.75;13.75;;;;;11.06;74.08;102645.16;5040775;28;46183;-82
2021/10/08 02:42:48;;;;;;;;;17.00;14.00;;;;;11.05;74.33;102645.13;5041312;28;45426;-81
2021/10/08 02:45:15;;;;;;;;;10.75;10.75;;;;;11.01;74.16;102645.16;5041193;28;45383;-81
2021/10/08 02:47:41;;;;;;;;;13.25;12.75;;;;;11.08;74.31;102660.94;5040443;28;45435;-81
2021/10/08 02:50:08;;;;;;;;;12.00;10.25;;;;;11.03;74.02;102658.31;5041242;28;45452;-81
2021/10/08 02:52:33;;;;;;;;;11.50;11.50;;;;;11.02;74.04;102660.06;5040547;28;45422;-81
2021/10/08 02:54:58;;;;;;;;;12.00;11.00;;;;;11.02;73.92;102659.19;5041748;28;45173;-81
2021/10/08 02:57:24;;;;;;;;;11.25;11.25;;;;;11.01;74.01;102660.94;5022591;28;46282;-87
2021/10/08 02:59:49;;;;;;;;;13.50;12.75;;;;;11.07;73.95;102659.16;5022753;28;47723;-89
2021/10/08 03:02:14;;;;;;;;;15.00;13.00;;;;;11.03;74.17;102653.94;5022673;28;45242;-88
2021/10/08 03:04:42;;;;;;;;;13.75;12.00;;;;;10.95;74.10;102639.94;5020761;28;45246;-88
2021/10/08 03:07:08;;;;;;;;;11.50;11.50;;;;;11.01;73.85;102653.03;5026322;28;45260;-88
2021/10/08 03:09:33;;;;;;;;;12.25;10.75;;;;;11.01;73.61;102666.19;5041340;28;46613;-88
2021/10/08 03:11:58;;;;;;;;;11.00;9.75;;;;;10.99;73.74;102660.06;5023275;28;45837;-83
2021/10/08 03:14:24;;;;;;;;;14.00;10.00;;;;;10.93;73.94;102644.31;5021849;28;45472;-83
2021/10/08 03:16:49;;;;;;;;;11.00;10.50;;;;;10.91;74.00;102646.09;5022442;28;46040;-83
2021/10/08 03:19:15;;;;;;;;;10.00;10.00;;;;;10.92;74.11;102655.72;5041173;28;45335;-84
2021/10/08 03:21:40;;;;;;;;;9.75;9.75;;;;;10.90;74.23;102657.47;5040653;28;45272;-83
2021/10/08 03:24:06;;;;;;;;;12.00;10.50;;;;;10.90;74.24;102660.09;5039697;28;46076;-86
2021/10/08 03:26:31;;;;;;;;;12.25;11.00;;;;;10.88;74.16;102646.09;5041165;28;45527;-82
2021/10/08 03:28:57;;;;;;;;;14.00;11.75;;;;;10.87;74.45;102650.47;5040644;28;46294;-84
2021/10/08 03:31:22;;;;;;;;;13.75;12.00;;;;;10.89;74.10;102658.38;5041166;28;45340;-80
2021/10/08 03:33:47;;;;;;;;;12.00;10.00;;;;;10.89;74.29;102661.84;5040192;28;45506;-83
2021/10/08 03:36:21;;;;;;;;;14.50;14.50;;;;;10.85;74.46;102660.13;5040751;28;45445;-81
2021/10/08 03:38:47;;;;;;;;;12.00;12.00;;;;;10.87;74.53;102662.75;5040825;28;46224;-84
2021/10/08 03:41:15;;;;;;;;;11.00;11.00;;;;;10.81;74.62;102653.13;5040904;28;45327;-84
2021/10/08 03:43:41;;;;;;;;;13.25;11.75;;;;;10.81;75.09;102655.78;5021099;28;45210;-84
2021/10/08 03:46:09;;;;;;;;;11.50;11.50;;;;;10.84;74.97;102652.25;5022054;28;45943;-84
2021/10/08 03:51:14;;;;;;;;;13.25;13.25;;;;;10.86;74.64;102658.38;5040314;28;45658;-86
2021/10/08 03:53:40;;;;;;;;;11.50;11.25;;;;;10.85;74.63;102660.13;5039843;28;45400;-86
2021/10/08 03:56:05;;;;;;;;;14.75;13.75;;;;;10.81;74.71;102658.41;5027814;28;45359;-84
2021/10/08 03:58:30;;;;;;;;;14.75;14.00;;;;;10.78;74.87;102654.03;5039875;28;45371;-84
2021/10/08 04:00:56;;;;;;;;;12.00;12.00;;;;;10.78;74.79;102661.03;5040607;28;45260;-84
2021/10/08 04:03:21;;;;;;;;;11.75;11.75;;;;;10.73;74.73;102647.88;5039830;28;45383;-83
2021/10/08 04:05:46;;;;;;;;;12.00;12.00;;;;;10.77;74.60;102657.50;5038779;28;45448;-81
2021/10/08 04:08:12;;;;;;;;;17.50;15.25;;;;;10.74;74.91;102660.16;5040180;28;45500;-81
2021/10/08 04:10:37;;;;;;;;;13.00;10.75;;;;;10.77;74.88;102670.66;5040264;28;45207;-81
2021/10/08 04:13:03;;;;;;;;;16.25;13.75;;;;;10.75;74.62;102675.06;5040040;28;45205;-81
2021/10/08 04:15:28;;;;;;;;;12.25;12.25;;;;;10.71;74.90;102667.19;5039207;28;45329;-83
2021/10/08 04:17:53;;;;;;;;;17.25;14.00;;;;;10.71;74.88;102673.31;5039491;28;45371;-83
2021/10/08 04:20:19;;;;;;;;;15.00;13.50;;;;;10.69;74.92;102664.56;5039950;28;45283;-84
2021/10/08 04:22:44;;;;;;;;;12.00;11.25;;;;;10.74;74.96;102678.56;5039855;28;45427;-83
2021/10/08 04:25:09;;;;;;;;;15.75;13.25;;;;;10.71;74.96;102672.44;5021336;28;45964;-83
2021/10/08 04:27:35;;;;;;;;;16.25;15.50;;;;;10.68;74.85;102670.69;5039515;28;45414;-83
2021/10/08 04:30:00;;;;;;;;;15.75;14.75;;;;;10.72;74.90;102674.22;5039779;28;45408;-83
2021/10/08 04:32:26;;;;;;;;;16.75;14.75;;;;;10.66;74.85;102667.19;5038997;28;45703;-82
2021/10/08 04:34:51;;;;;;;;;21.75;17.00;;;;;10.68;74.81;102674.22;5039709;28;45320;-83
2021/10/08 04:37:16;;;;;;;;;19.25;16.50;;;;;10.66;74.34;102673.34;5013670;28;47165;-79
2021/10/08 04:39:42;;;;;;;;;18.75;15.25;;;;;10.67;74.54;102672.44;5034798;28;45339;-79
2021/10/08 04:42:07;;;;;;;;;15.75;15.25;;;;;10.64;74.88;102671.59;5038894;28;45426;-82
2021/10/08 04:44:33;;;;;;;;;18.00;18.00;;;;;10.63;75.00;102670.72;5039147;28;45520;-82
2021/10/08 04:46:59;;;;;;;;;15.50;15.00;;;;;10.63;74.90;102668.09;5039440;28;46074;-81
2021/10/08 04:49:25;;;;;;;;;19.50;17.25;;;;;10.64;74.96;102671.59;5035191;28;46823;-82
2021/10/08 04:51:51;;;;;;;;;20.50;19.50;;;;;10.60;74.94;102667.19;5039493;28;45423;-82
2021/10/08 04:54:16;;;;;;;;;20.00;15.50;;;;;10.63;74.68;102675.09;5038531;28;45529;-85
2021/10/08 04:56:42;;;;;;;;;20.75;15.50;;;;;10.64;74.90;102679.47;5038315;28;46205;-84
2021/10/08 04:59:07;;;;;;;;;17.75;17.75;;;;;10.57;74.90;102670.69;5039603;28;45275;-83
2021/10/08 05:01:33;;;;;;;;;18.75;14.75;;;;;10.62;74.93;102681.25;5039397;28;45371;-83
2021/10/08 05:03:58;;;;;;;;;18.75;17.00;;;;;10.61;74.83;102683.00;5037584;28;45190;-81
2021/10/08 05:06:23;;;;;;;;;22.25;17.75;;;;;10.56;74.71;102669.84;5039272;28;45372;-82
2021/10/08 05:08:49;;;;;;;;;19.50;19.50;;;;;10.58;75.11;102675.09;5021430;28;45341;-82
2021/10/08 05:11:14;;;;;;;;;18.50;18.50;;;;;10.55;75.16;102675.97;5038531;28;45284;-82
2021/10/08 05:13:40;;;;;;;;;19.75;17.00;;;;;10.55;75.05;102670.72;5038494;28;45451;-81
2021/10/08 05:16:05;;;;;;;;;16.50;16.25;;;;;10.50;74.90;102669.81;5039462;28;45515;-81
2021/10/08 05:18:30;;;;;;;;;21.25;18.50;;;;;10.48;75.04;102674.22;5039011;28;45323;-81
2021/10/08 05:20:56;;;;;;;;;23.75;21.75;;;;;10.46;74.91;102676.84;5019958;28;45758;-83
2021/10/08 05:23:21;;;;;;;;;18.25;15.50;;;;;10.45;75.02;102676.81;5038895;28;45367;-83
2021/10/08 05:25:47;;;;;;;;;20.50;20.00;;;;;10.50;75.40;102680.31;5036682;28;45674;-89
2021/10/08 05:28:13;;;;;;;;;25.00;23.00;;;;;10.48;75.22;102682.09;5038714;28;45426;-84
2021/10/08 05:30:38;;;;;;;;;24.00;18.75;;;;;10.47;74.96;102685.59;5038836;28;45338;-84
2021/10/08 05:33:04;;;;;;;;;22.50;18.00;;;;;10.47;75.28;102680.31;5030440;28;45370;-84
2021/10/08 05:35:29;;;;;;;;;18.25;18.25;;;;;10.45;74.94;102682.97;5021042;28;47505;-86
2021/10/08 05:37:55;;;;;;;;;19.25;18.00;;;;;10.49;75.07;102689.13;5032215;28;45342;-92
2021/10/08 05:40:20;;;;;;;;;21.25;19.00;;;;;10.47;74.97;102685.59;5014512;28;45509;-84
2021/10/08 05:42:46;;;;;;;;;20.50;14.75;;;;;10.45;74.88;102687.34;5037768;28;45963;-85
2021/10/08 05:45:11;;;;;;;;;17.75;15.50;;;;;10.41;75.04;102678.59;5039176;28;46217;-85
2021/10/08 05:47:36;;;;;;;;;21.75;20.25;;;;;10.41;75.10;102688.22;5039076;28;45230;-83
2021/10/08 05:50:03;;;;;;;;;15.75;15.75;;;;;10.42;75.16;102682.13;5038016;28;45541;-87
2021/10/08 05:52:29;;;;;;;;;21.25;19.25;;;;;10.45;75.05;102684.72;5039429;28;45484;-87
2021/10/08 05:54:54;;;;;;;;;15.00;14.50;;;;;10.47;74.96;102690.84;5038415;28;45458;-87
2021/10/08 05:57:20;;;;;;;;;18.50;16.25;;;;;10.46;74.98;102690.00;5021057;28;45309;-86
2021/10/08 05:59:45;;;;;;;;;21.00;19.00;;;;;10.46;75.04;102684.72;5019969;28;45656;-84
2021/10/08 06:02:11;;;;;;;;;24.25;19.50;;;;;10.45;75.20;102688.22;5037736;28;45474;-89
2021/10/08 06:04:37;;;;;;;;;26.25;22.50;;;;;10.44;74.91;102683.88;5037706;28;46486;-86
2021/10/08 06:07:03;;;;;;;;;21.50;21.00;;;;;10.42;74.95;102687.38;5015915;28;46819;-83
2021/10/08 06:09:28;;;;;;;;;20.75;17.50;;;;;10.39;75.00;102684.72;5034067;28;45348;-83
2021/10/08 06:11:53;;;;;;;;;23.75;20.75;;;;;10.45;75.10;102697.84;5037408;28;45324;-87
2021/10/08 06:14:19;;;;;;;;;28.00;23.50;;;;;10.41;75.21;102699.63;5035586;28;45599;-83
2021/10/08 06:16:44;;;;;;;;;22.00;20.50;;;;;10.43;75.24;102697.00;5020580;28;45476;-82
2021/10/08 06:19:09;;;;;;;;;25.75;21.50;;;;;10.42;75.04;102697.88;5038873;28;45717;-82
2021/10/08 06:21:35;;;;;;;;;28.25;23.50;;;;;10.43;75.43;102699.63;5021343;28;47089;-83
2021/10/08 06:24:00;;;;;;;;;28.50;22.50;;;;;10.40;75.36;102703.13;5041301;28;46269;-81
2021/10/08 06:26:26;;;;;;;;;24.00;21.50;;;;;10.40;75.22;102715.38;5041682;28;45562;-81
2021/10/08 06:28:51;;;;;;;;;23.50;20.75;;;;;10.43;75.23;102711.00;5023802;28;45435;-81
2021/10/08 06:31:16;;;;;;;;;27.75;24.25;;;;;10.45;75.45;102708.38;5042074;28;45471;-82
2021/10/08 06:33:42;;;;;;;;;24.25;21.50;;;;;10.41;75.43;102698.75;5039594;28;45341;-82
2021/10/08 06:36:07;;;;;;;;;28.50;23.25;;;;;10.46;75.56;102720.66;5034337;28;45242;-81
2021/10/08 06:38:33;;;;;;;;;23.50;22.50;;;;;10.44;75.32;102719.78;5041292;28;45203;-81
2021/10/08 06:40:58;;;;;;;;;26.50;23.00;;;;;10.45;75.83;102718.91;5041570;28;45577;-81
2021/10/08 06:43:23;;;;;;;;;24.75;24.50;;;;;10.44;75.57;102718.03;5050174;28;46355;-82
2021/10/08 06:45:49;;;;;;;;;27.25;25.00;;;;;10.49;76.10;102720.66;5038050;28;45539;-82
2021/10/08 06:48:15;;;;;;;;;29.50;22.75;;;;;10.48;76.57;102713.63;5039973;28;45491;-82
2021/10/08 06:50:40;;;;;;;;;31.00;27.25;;;;;10.58;77.06;102718.06;5022092;28;46230;-82
2021/10/08 06:53:06;;;;;;;;;32.00;27.75;;;;;10.60;77.04;102712.78;5041058;28;45502;-81
2021/10/08 06:55:31;;;;;;;;;29.50;27.00;;;;;10.69;77.13;102715.38;5033813;28;45387;-81
2021/10/08 06:57:56;;;;;;;;;29.00;24.50;;;;;10.73;77.23;102725.91;5038824;28;45540;-81
2021/10/08 07:00:23;;;;;;;;;26.25;26.25;;;;;10.82;77.05;102725.91;5030911;28;45357;-82
2021/10/08 07:02:53;;;;;;;;;33.25;29.00;;;;;10.96;77.05;102732.91;5040658;28;45375;-82
2021/10/08 07:05:21;;;;;;;;;33.25;30.50;;;;;10.99;77.00;102720.59;5040397;28;45786;-81
2021/10/08 07:07:46;;;;;;;;;35.50;31.25;;;;;11.06;76.90;102713.56;5041369;28;45478;-82
2021/10/08 07:10:13;;;;;;;;;33.50;30.50;;;;;11.16;76.93;102729.34;5038196;28;45342;-81
2021/10/08 07:12:38;;;;;;;;;37.00;30.00;;;;;11.21;76.69;102717.88;5039056;28;46343;-82
2021/10/08 07:15:07;;;;;;;;;29.75;26.75;;;;;11.27;76.95;102730.16;5040347;28;45219;-82
2021/10/08 07:17:38;;;;;;;;;31.25;30.00;;;;;11.35;76.92;102744.19;5038965;28;45533;-82
2021/10/08 07:20:04;;;;;;;;;32.75;29.50;;;;;11.38;76.77;102737.16;5040942;28;45397;-82
2021/10/08 07:22:29;;;;;;;;;31.00;30.50;;;;;11.42;76.62;102736.25;5039861;28;46187;-81
2021/10/08 07:24:54;;;;;;;;;30.25;26.00;;;;;11.47;76.76;102737.09;5040099;28;46047;-82
2021/10/08 07:27:20;;;;;;;;;26.00;25.00;;;;;11.55;76.39;102737.94;5041262;28;45217;-82
2021/10/08 07:29:45;;;;;;;;;34.50;29.75;;;;;11.60;76.22;102730.03;5040563;28;45272;-82
2021/10/08 07:32:11;;;;;;;;;31.50;28.00;;;;;11.66;76.33;102740.50;5011248;28;47056;-81
2021/10/08 07:34:37;;;;;;;;;31.25;27.75;;;;;11.68;75.97;102744.00;5039369;28;45207;-81
2021/10/08 07:37:02;;;;;;;;;28.50;26.00;;;;;11.75;75.81;102749.25;5036020;28;45294;-82
2021/10/08 07:39:27;;;;;;;;;35.50;30.00;;;;;11.79;75.43;102753.63;5033494;28;45319;-82
2021/10/08 07:41:53;;;;;;;;;29.50;27.75;;;;;11.78;75.32;102746.59;5030590;28;46304;-82
2021/10/08 07:44:18;;;;;;;;;34.75;27.25;;;;;11.83;75.30;102744.81;5027634;28;45648;-82
2021/10/08 07:46:45;;;;;;;;;33.75;31.50;;;;;11.91;75.42;102757.94;5038883;28;45433;-81
2021/10/08 07:49:10;;;;;;;;;34.00;31.00;;;;;11.89;75.00;102747.41;5039330;28;45417;-82
2021/10/08 07:51:36;;;;;;;;;35.75;31.25;;;;;11.90;75.05;102743.88;5038404;28;46096;-82
2021/10/08 07:54:02;;;;;;;;;37.00;31.75;;;;;11.97;74.89;102751.75;5039340;28;45371;-82
2021/10/08 07:56:28;;;;;;;;;38.50;33.25;;;;;12.00;74.95;102749.97;5026320;28;45409;-82
2021/10/08 07:58:53;;;;;;;;;34.25;31.25;;;;;12.03;74.62;102742.03;5039841;28;45338;-82
2021/10/08 08:01:19;;;;;;;;;34.00;29.50;;;;;12.04;74.44;102735.91;5020123;28;47338;-82
2021/10/08 08:03:44;;;;;;;;;31.75;29.75;;;;;12.04;74.49;102741.19;5021502;28;45887;-82
2021/10/08 08:06:09;;;;;;;;;40.00;33.50;;;;;12.09;74.20;102743.78;5039620;28;45453;-82
2021/10/08 08:08:35;;;;;;;;;29.00;26.75;;;;;12.11;74.25;102743.75;5039800;28;45471;-82
2021/10/08 08:11:00;;;;;;;;;30.00;27.00;;;;;12.14;74.12;102735.88;5038593;28;45361;-82
2021/10/08 08:13:26;;;;;;;;;32.75;29.75;;;;;12.20;73.63;102748.13;5038566;28;45427;-81
2021/10/08 08:15:51;;;;;;;;;28.50;27.00;;;;;12.19;73.90;102738.47;5040066;28;45249;-82
2021/10/08 08:18:17;;;;;;;;;31.50;29.25;;;;;12.24;73.81;102734.03;5038272;28;45326;-82
2021/10/08 08:20:43;;;;;;;;;31.50;27.75;;;;;12.29;73.93;102736.63;5039563;28;45466;-82
2021/10/08 08:23:09;;;;;;;;;33.25;29.75;;;;;12.32;73.95;102740.09;5038808;28;45236;-82
2021/10/08 08:25:34;;;;;;;;;25.75;23.25;;;;;12.36;73.36;102736.56;5038590;28;45802;-82
2021/10/08 08:27:59;;;;;;;;;39.25;33.00;;;;;12.42;73.37;102742.69;5038871;28;45489;-82
2021/10/08 08:30:25;;;;;;;;;32.25;27.25;;;;;12.47;72.94;102748.81;5039293;28;46357;-82
2021/10/08 08:32:51;;;;;;;;;28.75;26.25;;;;;12.51;72.46;102749.63;5037128;28;45459;-82
2021/10/08 08:35:17;;;;;;;;;27.25;25.75;;;;;12.55;72.22;102752.22;5035758;28;45323;-82
2021/10/08 08:37:42;;;;;;;;;28.00;26.50;;;;;12.53;72.59;102738.19;5030454;28;45481;-82
2021/10/08 08:40:09;;;;;;;;;27.25;25.25;;;;;12.58;72.00;102735.50;5037487;28;45418;-82
2021/10/08 08:42:35;;;;;;;;;25.75;23.50;;;;;12.62;72.24;102739.00;5038717;28;45412;-82
2021/10/08 08:45:00;;;;;;;;;30.00;28.75;;;;;12.67;72.08;102745.94;5037962;28;45473;-82
2021/10/08 08:47:26;;;;;;;;;27.25;25.50;;;;;12.73;72.03;102745.03;5038331;28;45284;-82
2021/10/08 08:49:51;;;;;;;;;34.25;28.50;;;;;12.77;71.45;102741.47;5037769;28;46461;-82
2021/10/08 08:52:18;;;;;;;;;22.50;21.25;;;;;12.82;72.12;102742.28;5039300;28;45344;-82
2021/10/08 08:54:45;;;;;;;;;26.50;26.00;;;;;12.88;70.85;102727.28;5038720;28;45494;-82
2021/10/08 08:57:16;;;;;;;;;28.25;25.25;;;;;12.93;71.28;102722.84;5036759;28;45549;-82
2021/10/08 09:00:06;;;;;;;;;26.75;25.00;;;;;13.06;71.38;102736.78;5038083;28;45380;-82
2021/10/08 09:02:33;;;;;;;;;37.50;32.50;;;;;13.11;71.31;102732.28;5017401;28;45388;-82
2021/10/08 09:04:59;;;;;;;;;33.50;26.25;;;;;13.20;71.31;102733.97;5039112;28;45407;-82
2021/10/08 09:07:34;;;;;;;;;24.50;23.00;;;;;13.21;71.13;102719.84;5037594;28;45583;-82
2021/10/08 09:10:24;;;;;;;;;31.25;25.25;;;;;13.26;70.66;102719.81;5023371;28;45440;-82
2021/10/08 09:12:50;;;;;;;;;24.50;20.75;;;;;13.38;70.46;102727.56;5036783;28;45884;-82
2021/10/08 09:15:17;;;;;;;;;26.00;24.25;;;;;13.47;70.68;102723.94;5019572;28;45813;-82
2021/10/08 09:17:43;;;;;;;;;20.50;20.50;;;;;13.52;69.95;102729.16;5037998;28;45420;-82
2021/10/08 09:20:15;;;;;;;;;22.00;19.75;;;;;13.53;69.69;102715.03;5026801;28;45451;-81
2021/10/08 09:22:40;;;;;;;;;21.25;18.75;;;;;13.64;69.25;102724.63;5019999;28;45403;-81
2021/10/08 09:25:15;;;;;;;;;20.75;18.75;;;;;13.66;68.92;102712.25;5038556;28;45783;-81
2021/10/08 09:27:49;;;;;;;;;23.50;22.00;;;;;13.71;68.54;102706.03;5038384;28;45284;-82
2021/10/08 09:30:15;;;;;;;;;17.00;12.50;;;;;13.81;69.27;102705.88;5026991;28;46158;-77
2021/10/08 09:32:45;;;;;;;;;16.25;15.50;;;;;13.90;69.30;102710.19;5037847;28;45663;-77
2021/10/08 09:35:13;;;;;;;;;19.25;16.75;;;;;13.97;68.34;102708.31;5039033;28;45213;-77
2021/10/08 09:37:40;;;;;;;;;14.50;14.00;;;;;14.03;68.58;102700.25;5038485;28;45491;-77
2021/10/08 09:40:28;;;;;;;;;16.75;15.50;;;;;14.09;68.21;102694.00;5027649;28;45340;-77
2021/10/08 09:42:58;;;;;;;;;14.00;14.00;;;;;14.17;68.05;102703.53;5038094;28;45444;-77
2021/10/08 09:45:54;;;;;;;;;17.25;15.50;;;;;14.26;67.61;102699.00;5034207;28;45412;-77
2021/10/08 09:48:43;;;;;;;;;13.00;10.75;;;;;14.30;65.83;102684.81;5008625;28;46188;-77
2021/10/08 09:51:10;;;;;;;;;17.25;13.25;;;;;14.40;66.81;102686.41;5038162;28;45606;-78
2021/10/08 09:53:56;;;;;;;;;10.25;10.25;;;;;14.46;66.52;102687.22;5038278;28;45239;-78
2021/10/08 09:56:32;;;;;;;;;13.75;11.00;;;;;14.58;65.48;102683.47;5038331;28;45233;-78
2021/10/08 09:58:59;;;;;;;;;9.00;9.00;;;;;14.63;65.37;102687.78;5033433;28;45514;-77
2021/10/08 10:01:27;;;;;;;;;10.25;8.50;;;;;14.69;65.61;102677.97;5038892;28;45365;-78
2021/10/08 10:03:53;;;;;;;;;12.50;10.50;;;;;14.72;65.65;102677.88;5041174;28;45639;-78
2021/10/08 10:06:20;;;;;;;;;11.75;10.75;;;;;14.78;64.89;102672.50;5040318;28;45387;-78
2021/10/08 10:08:47;;;;;;;;;9.75;8.25;;;;;14.85;64.83;102676.78;5042336;28;45478;-77
2021/10/08 10:11:15;;;;;;;;;11.00;10.00;;;;;14.89;64.88;102664.34;5040859;28;45422;-77
2021/10/08 10:13:43;;;;;;;;;10.00;8.00;;;;;14.96;64.46;102673.06;5022032;28;45637;-78
2021/10/08 10:16:09;;;;;;;;;9.00;5.00;;;;;14.96;62.19;102659.81;5042244;28;45309;-78
2021/10/08 10:18:35;;;;;;;;;9.25;6.50;;;;;15.07;63.55;102662.22;5023629;28;45498;-78
2021/10/08 10:21:02;;;;;;;;;5.50;5.50;;;;;15.11;63.62;102668.34;5040659;28;46191;-78
2021/10/08 10:23:29;;;;;;;;;6.75;6.75;;;;;15.17;62.54;102662.91;5042004;28;45322;-78
2021/10/08 10:25:56;;;;;;;;;8.75;5.75;;;;;15.24;63.02;102668.94;5023989;28;45378;-77
2021/10/08 10:28:22;;;;;;;;;8.00;6.25;;;;;15.28;63.06;102671.47;5040310;28;45764;-78
2021/10/08 10:30:50;;;;;;;;;6.25;5.00;;;;;15.33;62.19;102668.75;5023480;28;47236;-77
2021/10/08 10:33:16;;;;;;;;;6.50;3.50;;;;;15.42;61.97;102667.66;5013728;28;45211;-77
2021/10/08 10:35:46;;;;;;;;;13.00;10.00;;;;;15.45;60.42;102670.25;5023841;28;45257;-77
2021/10/08 10:38:34;;;;;;;;;12.75;10.00;;;;;15.54;60.92;102671.81;5040872;28;45422;-78
2021/10/08 10:41:09;;;;;;;;;12.00;8.25;;;;;15.56;61.44;102669.09;5022468;28;47228;-78
2021/10/08 10:43:36;;;;;;;;;8.00;5.75;;;;;15.63;61.24;102673.38;5041907;28;45226;-78
2021/10/08 10:52:17;;;;;;;;;12.25;9.25;;;;;15.73;60.04;102658.97;5040512;28;45465;-78
2021/10/08 10:54:49;;;;;;;;;7.75;7.50;;;;;15.85;59.96;102671.06;5026265;28;45373;-78
2021/10/08 10:57:18;;;;;;;;;11.50;9.50;;;;;15.90;60.67;102667.44;5022904;28;45462;-78
2021/10/08 10:59:44;;;;;;;;;5.75;5.75;;;;;15.90;61.49;102657.69;5022349;28;46369;-78
2021/10/08 11:02:11;;;;;;;;;8.75;8.75;;;;;15.98;61.28;102662.81;5041309;28;45276;-78
2021/10/08 11:04:44;;;;;;;;;11.25;7.75;;;;;15.97;61.29;102654.00;5041250;28;45695;-78
2021/10/08 11:07:12;;;;;;;;;5.00;3.75;;;;;16.04;60.97;102661.78;5041018;28;45301;-78
2021/10/08 11:09:40;;;;;;;;;8.50;7.00;;;;;16.05;61.14;102645.84;5034743;28;45410;-78
2021/10/08 11:12:43;;;;;;;;;9.25;9.25;;;;;16.14;60.84;102655.38;5033920;28;46454;-78
2021/10/08 11:15:14;;;;;;;;;5.50;3.50;;;;;16.18;61.10;102656.16;5022832;28;46110;-78
2021/10/08 11:17:54;;;;;;;;;9.00;8.00;;;;;16.22;60.70;102649.88;5041456;28;45235;-78
2021/10/08 11:20:26;;;;;;;;;5.25;4.75;;;;;16.27;61.20;102644.44;5040093;28;45446;-78